Time,TemperatureF,DewpointF,PressureIn,WindDirection,WindDirectionDegrees,WindSpeedMPH,WindSpeedGustMPH,Humidity,HourlyPrecipIn,Conditions,Clouds,dailyrainin,SoftwareType,DateUTC
2013-11-02 00:10:00,30.6,24.0,30.14,NNW,342,0.0,-999.0,75,-99.99,,,0.00,weatherlink.com 1.10,2013-11-02 06:10:00,
2013-11-02 00:25:00,31.6,25.0,30.14,North,8,5.0,-999.0,76,-99.99,,,0.00,weatherlink.com 1.10,2013-11-02 06:25:00,
2013-11-02 00:40:00,31.8,24.0,30.12,North,3,5.0,-999.0,73,-99.99,,,0.00,weatherlink.com 1.10,2013-11-02 06:40:00,
2013-11-02 00:55:00,30.1,23.0,30.13,North,359,4.0,-999.0,76,-99.99,,,0.00,weatherlink.com 1.10,2013-11-02 06:55:00,
2013-11-02 01:10:00,30.1,24.0,30.13,North,359,0.0,-999.0,77,-99.99,,,0.00,weatherlink.com 1.10,2013-11-02 07:10:00,
2013-11-02 01:25:00,31.2,25.0,30.11,North,359,4.0,-999.0,77,-99.99,,,0.00,weatherlink.com 1.10,2013-11-02 07:25:00,
2013-11-02 01:40:00,29.7,23.0,30.11,North,359,0.0,-999.0,77,-99.99,,,0.00,weatherlink.com 1.10,2013-11-02 07:40:00,
2013-11-02 01:55:00,29.5,23.0,30.14,North,359,0.0,-999.0,77,-99.99,,,0.00,weatherlink.com 1.10,2013-11-02 07:55:00,
2013-11-02 02:10:00,29.1,23.0,30.15,North,359,0.0,-999.0,79,-99.99,,,0.00,weatherlink.com 1.10,2013-11-02 08:10:00,
2013-11-02 02:25:00,29.5,24.0,30.15,North,359,0.0,-999.0,79,-99.99,,,0.00,weatherlink.com 1.10,2013-11-02 08:25:00,
2013-11-02 02:40:00,29.5,23.0,30.13,North,359,0.0,-999.0,78,-99.99,,,0.00,weatherlink.com 1.10,2013-11-02 08:40:00,
2013-11-02 02:55:00,29.5,24.0,30.13,North,359,0.0,-999.0,79,-99.99,,,0.00,weatherlink.com 1.10,2013-11-02 08:55:00,
2013-11-02 03:10:00,29.0,24.0,30.15,North,359,0.0,-999.0,80,-99.99,,,0.00,weatherlink.com 1.10,2013-11-02 09:10:00,
2013-11-02 03:25:00,28.2,23.0,30.15,North,359,0.0,-999.0,80,-99.99,,,0.00,weatherlink.com 1.10,2013-11-02 09:25:00,
2013-11-02 03:40:00,28.1,23.0,30.14,North,359,0.0,-999.0,81,-99.99,,,0.00,weatherlink.com 1.10,2013-11-02 09:40:00,
2013-11-02 03:55:00,26.9,22.0,30.14,North,359,0.0,-999.0,80,-99.99,,,0.00,weatherlink.com 1.10,2013-11-02 09:55:00,
2013-11-02 04:10:00,26.0,21.0,30.15,North,359,0.0,-999.0,82,-99.99,,,0.00,weatherlink.com 1.10,2013-11-02 10:10:00,
2013-11-02 04:25:00,26.1,22.0,30.16,North,359,0.0,-999.0,83,-99.99,,,0.00,weatherlink.com 1.10,2013-11-02 10:25:00,
2013-11-02 04:40:00,26.7,22.0,30.16,North,359,0.0,-999.0,83,-99.99,,,0.00,weatherlink.com 1.10,2013-11-02 10:40:00,
2013-11-02 04:55:00,26.6,22.0,30.15,North,359,1.0,-999.0,83,-99.99,,,0.00,weatherlink.com 1.10,2013-11-02 10:55:00,
2013-11-02 05:11:00,26.7,23.0,30.15,North,359,0.0,-999.0,84,-99.99,,,0.00,weatherlink.com 1.10,2013-11-02 11:11:00,
2013-11-02 05:26:00,26.7,22.0,30.18,North,0,0.0,-999.0,83,-99.99,,,0.00,weatherlink.com 1.10,2013-11-02 11:26:00,
2013-11-02 05:41:00,26.6,22.0,30.18,North,0,3.0,-999.0,83,-99.99,,,0.00,weatherlink.com 1.10,2013-11-02 11:41:00,
2013-11-02 05:56:00,27.0,23.0,30.19,North,1,6.0,-999.0,85,-99.99,,,0.00,weatherlink.com 1.10,2013-11-02 11:56:00,
2013-11-02 06:10:00,28.5,24.0,30.18,North,1,3.0,-999.0,83,-99.99,,,0.00,weatherlink.com 1.10,2013-11-02 12:10:00,
2013-11-02 06:26:00,27.8,23.0,30.18,North,1,0.0,-999.0,82,-99.99,,,0.00,weatherlink.com 1.10,2013-11-02 12:26:00,
2013-11-02 06:41:00,27.6,23.0,30.19,North,1,2.0,-999.0,82,-99.99,,,0.00,weatherlink.com 1.10,2013-11-02 12:41:00,
2013-11-02 06:57:00,27.5,23.0,30.18,North,1,0.0,-999.0,82,-99.99,,,0.00,weatherlink.com 1.10,2013-11-02 12:57:00,
2013-11-02 07:10:00,27.3,23.0,30.18,North,1,0.0,-999.0,82,-99.99,,,0.00,weatherlink.com 1.10,2013-11-02 13:10:00,
2013-11-02 07:26:00,26.3,21.0,30.22,North,1,0.0,-999.0,81,-99.99,,,0.00,weatherlink.com 1.10,2013-11-02 13:26:00,
2013-11-02 07:41:00,25.6,21.0,30.23,North,1,0.0,-999.0,82,-99.99,,,0.00,weatherlink.com 1.10,2013-11-02 13:41:00,
2013-11-02 07:57:00,25.6,21.0,30.23,North,1,0.0,-999.0,83,-99.99,,,0.00,weatherlink.com 1.10,2013-11-02 13:57:00,
2013-11-02 08:12:00,26.7,22.0,30.23,North,1,0.0,-999.0,83,-99.99,,,0.00,weatherlink.com 1.10,2013-11-02 14:12:00,
2013-11-02 08:27:00,27.9,23.0,30.25,North,1,0.0,-999.0,83,-99.99,,,0.00,weatherlink.com 1.10,2013-11-02 14:27:00,
2013-11-02 08:41:00,30.3,25.0,30.24,North,1,0.0,-999.0,82,-99.99,,,0.00,weatherlink.com 1.10,2013-11-02 14:41:00,
2013-11-02 08:57:00,33.1,27.0,30.23,North,1,0.0,-999.0,78,-99.99,,,0.00,weatherlink.com 1.10,2013-11-02 14:57:00,
2013-11-02 09:13:00,35.0,26.0,30.22,North,1,2.0,-999.0,70,-99.99,,,0.00,weatherlink.com 1.10,2013-11-02 15:13:00,
2013-11-02 09:27:00,36.8,27.0,30.24,North,1,2.0,-999.0,67,-99.99,,,0.00,weatherlink.com 1.10,2013-11-02 15:27:00,
2013-11-02 09:42:00,41.3,28.0,30.22,North,1,2.0,-999.0,59,-99.99,,,0.00,weatherlink.com 1.10,2013-11-02 15:42:00,
2013-11-02 09:57:00,43.9,28.0,30.20,NE,44,2.0,-999.0,53,-99.99,,,0.00,weatherlink.com 1.10,2013-11-02 15:57:00,
2013-11-02 10:12:00,46.2,27.0,30.18,East,89,3.0,-999.0,47,-99.99,,,0.00,weatherlink.com 1.10,2013-11-02 16:12:00,
2013-11-02 10:28:00,47.0,26.0,30.20,East,96,6.0,-999.0,44,-99.99,,,0.00,weatherlink.com 1.10,2013-11-02 16:28:00,
2013-11-02 10:44:00,48.6,27.0,30.20,East,82,3.0,-999.0,43,-99.99,,,0.00,weatherlink.com 1.10,2013-11-02 16:44:00,
2013-11-02 10:58:00,49.9,27.0,30.18,ESE,106,4.0,-999.0,41,-99.99,,,0.00,weatherlink.com 1.10,2013-11-02 16:58:00,
2013-11-02 11:13:00,50.7,27.0,30.18,ESE,108,4.0,-999.0,40,-99.99,,,0.00,weatherlink.com 1.10,2013-11-02 17:13:00,
2013-11-02 11:29:00,51.3,28.0,30.17,East,97,4.0,-999.0,40,-99.99,,,0.00,weatherlink.com 1.10,2013-11-02 17:29:00,
2013-11-02 11:44:00,52.3,27.0,30.16,East,96,0.0,-999.0,38,-99.99,,,0.00,weatherlink.com 1.10,2013-11-02 17:44:00,
2013-11-02 11:59:00,53.6,26.0,30.14,ENE,65,5.0,-999.0,35,-99.99,,,0.00,weatherlink.com 1.10,2013-11-02 17:59:00,
2013-11-02 12:13:00,53.6,26.0,30.13,East,85,6.0,-999.0,35,-99.99,,,0.00,weatherlink.com 1.10,2013-11-02 18:13:00,
2013-11-02 12:28:00,55.4,27.0,30.12,ESE,120,1.0,-999.0,33,-99.99,,,0.00,weatherlink.com 1.10,2013-11-02 18:28:00,
2013-11-02 12:43:00,55.4,25.0,30.10,ENE,67,3.0,-999.0,31,-99.99,,,0.00,weatherlink.com 1.10,2013-11-02 18:43:00,
2013-11-02 13:00:00,56.6,25.0,30.09,SE,126,3.0,-999.0,30,-99.99,,,0.00,weatherlink.com 1.10,2013-11-02 19:00:00,
2013-11-02 13:15:00,57.0,24.0,30.07,ESE,117,3.0,-999.0,28,-99.99,,,0.00,weatherlink.com 1.10,2013-11-02 19:15:00,
2013-11-02 13:30:00,57.2,23.0,30.07,East,99,5.0,-999.0,27,-99.99,,,0.00,weatherlink.com 1.10,2013-11-02 19:30:00,
2013-11-02 13:45:00,57.6,25.0,30.04,SE,139,0.0,-999.0,28,-99.99,,,0.00,weatherlink.com 1.10,2013-11-02 19:45:00,
2013-11-02 13:59:00,57.6,24.0,30.04,East,92,2.0,-999.0,27,-99.99,,,0.00,weatherlink.com 1.10,2013-11-02 19:59:00,
2013-11-02 14:14:00,58.6,25.0,30.03,SSE,155,0.0,-999.0,27,-99.99,,,0.00,weatherlink.com 1.10,2013-11-02 20:14:00,
2013-11-02 14:30:00,59.0,21.0,30.01,SSE,167,0.0,-999.0,23,-99.99,,,0.00,weatherlink.com 1.10,2013-11-02 20:30:00,
2013-11-02 14:45:00,59.5,20.0,30.00,SE,146,5.0,-999.0,22,-99.99,,,0.00,weatherlink.com 1.10,2013-11-02 20:45:00,
2013-11-02 14:59:00,59.8,21.0,30.00,East,97,6.0,-999.0,22,-99.99,,,0.00,weatherlink.com 1.10,2013-11-02 20:59:00,
2013-11-02 15:15:00,60.9,22.0,29.98,SSW,213,4.0,-999.0,22,-99.99,,,0.00,weatherlink.com 1.10,2013-11-02 21:15:00,
2013-11-02 15:30:00,60.4,19.0,29.99,ENE,65,0.0,-999.0,20,-99.99,,,0.00,weatherlink.com 1.10,2013-11-02 21:30:00,
2013-11-02 15:45:00,61.3,20.0,29.97,ENE,63,0.0,-999.0,20,-99.99,,,0.00,weatherlink.com 1.10,2013-11-02 21:45:00,
2013-11-02 16:01:00,61.8,20.0,29.95,SSW,202,3.0,-999.0,20,-99.99,,,0.00,weatherlink.com 1.10,2013-11-02 22:01:00,
2013-11-02 16:16:00,62.0,19.0,29.95,SSW,213,2.0,-999.0,19,-99.99,,,0.00,weatherlink.com 1.10,2013-11-02 22:16:00,
2013-11-02 16:32:00,62.0,19.0,29.94,SE,134,0.0,-999.0,19,-99.99,,,0.00,weatherlink.com 1.10,2013-11-02 22:32:00,
2013-11-02 16:45:00,61.3,20.0,29.93,ESE,114,1.0,-999.0,20,-99.99,,,0.00,weatherlink.com 1.10,2013-11-02 22:45:00,
2013-11-02 17:01:00,60.7,21.0,29.92,SE,128,3.0,-999.0,22,-99.99,,,0.00,weatherlink.com 1.10,2013-11-02 23:01:00,
2013-11-02 17:16:00,60.1,22.0,29.91,East,93,0.0,-999.0,23,-99.99,,,0.00,weatherlink.com 1.10,2013-11-02 23:16:00,
2013-11-02 17:32:00,59.8,23.0,29.91,East,93,2.0,-999.0,24,-99.99,,,0.00,weatherlink.com 1.10,2013-11-02 23:32:00,
2013-11-02 17:47:00,59.0,22.0,29.91,East,88,0.0,-999.0,24,-99.99,,,0.00,weatherlink.com 1.10,2013-11-02 23:47:00,
2013-11-02 18:01:00,58.3,22.0,29.90,East,88,0.0,-999.0,25,-99.99,,,0.00,weatherlink.com 1.10,2013-11-03 00:01:00,
2013-11-02 18:16:00,56.5,24.0,29.91,East,88,0.0,-999.0,28,-99.99,,,0.00,weatherlink.com 1.10,2013-11-03 00:16:00,
2013-11-02 18:32:00,53.1,24.0,29.92,East,88,0.0,-999.0,32,-99.99,,,0.00,weatherlink.com 1.10,2013-11-03 00:32:00,
2013-11-02 18:47:00,48.2,23.0,29.95,ENE,65,2.0,-999.0,38,-99.99,,,0.00,weatherlink.com 1.10,2013-11-03 00:47:00,
2013-11-02 19:03:00,46.4,23.0,29.97,ENE,65,0.0,-999.0,40,-99.99,,,0.00,weatherlink.com 1.10,2013-11-03 01:03:00,
2013-11-02 19:16:00,44.8,23.0,30.00,ENE,65,3.0,-999.0,43,-99.99,,,0.00,weatherlink.com 1.10,2013-11-03 01:16:00,
2013-11-02 19:32:00,42.5,23.0,30.00,ENE,65,3.0,-999.0,47,-99.99,,,0.00,weatherlink.com 1.10,2013-11-03 01:32:00,
2013-11-02 19:47:00,40.9,24.0,30.02,NE,52,5.0,-999.0,51,-99.99,,,0.00,weatherlink.com 1.10,2013-11-03 01:47:00,
2013-11-02 20:02:00,39.9,24.0,30.02,NE,51,0.0,-999.0,53,-99.99,,,0.00,weatherlink.com 1.10,2013-11-03 02:02:00,
2013-11-02 20:17:00,40.6,25.0,29.97,NE,51,0.0,-999.0,54,-99.99,,,0.00,weatherlink.com 1.10,2013-11-03 02:17:00,
2013-11-02 20:32:00,40.9,24.0,29.97,NE,51,3.0,-999.0,52,-99.99,,,0.00,weatherlink.com 1.10,2013-11-03 02:32:00,
2013-11-02 20:47:00,41.3,23.0,29.97,NE,51,0.0,-999.0,49,-99.99,,,0.00,weatherlink.com 1.10,2013-11-03 02:47:00,
2013-11-02 21:02:00,41.1,24.0,29.96,NE,51,2.0,-999.0,50,-99.99,,,0.00,weatherlink.com 1.10,2013-11-03 03:02:00,
2013-11-02 21:17:00,40.6,24.0,29.89,NE,51,0.0,-999.0,52,-99.99,,,0.00,weatherlink.com 1.10,2013-11-03 03:17:00,
2013-11-02 21:32:00,41.3,25.0,29.87,NE,39,2.0,-999.0,52,-99.99,,,0.00,weatherlink.com 1.10,2013-11-03 03:32:00,
2013-11-02 21:47:00,40.9,25.0,29.88,North,354,5.0,-999.0,53,-99.99,,,0.00,weatherlink.com 1.10,2013-11-03 03:47:00,
2013-11-02 22:02:00,40.6,25.0,29.87,North,354,0.0,-999.0,54,-99.99,,,0.00,weatherlink.com 1.10,2013-11-03 04:02:00,
2013-11-02 22:17:00,40.8,26.0,29.85,North,354,0.0,-999.0,55,-99.99,,,0.00,weatherlink.com 1.10,2013-11-03 04:17:00,
2013-11-02 22:32:00,39.5,25.0,29.85,North,354,0.0,-999.0,56,-99.99,,,0.00,weatherlink.com 1.10,2013-11-03 04:32:00,
2013-11-02 22:47:00,39.5,25.0,29.86,North,1,5.0,-999.0,57,-99.99,,,0.00,weatherlink.com 1.10,2013-11-03 04:47:00,
2013-11-02 23:02:00,41.5,25.0,29.85,North,4,4.0,-999.0,53,-99.99,,,0.00,weatherlink.com 1.10,2013-11-03 05:02:00,
2013-11-02 23:17:00,42.8,25.0,29.81,North,359,4.0,-999.0,49,-99.99,,,0.00,weatherlink.com 1.10,2013-11-03 05:17:00,
2013-11-02 23:32:00,42.8,25.0,29.81,North,359,0.0,-999.0,49,-99.99,,,0.00,weatherlink.com 1.10,2013-11-03 05:32:00,
2013-11-02 23:47:00,41.3,25.0,29.83,North,359,3.0,-999.0,52,-99.99,,,0.00,weatherlink.com 1.10,2013-11-03 05:47:00,